Time;durP1;ratioP1;P1;durP2;ratioP2;P2;SDS_P1;SDS_P2;PMS_P1;PMS_P2;Temp;Humidity;BMP_temperature;BMP_pressure;BME280_temperature;BME280_humidity;BME280_pressure;Samples;Min_cycle;Max_cycle;Signal;HPM_P1;HPM_P2
2021/06/08 00:02:10;;;;;;;9.82;8.93;;;16.20;99.90;;;;;;6295289;28;20028;-82
2021/06/08 00:05:11;;;;;;;9.77;8.88;;;16.40;99.90;;;;;;6295221;28;20506;-82
2021/06/08 00:08:12;;;;;;;9.63;8.65;;;16.30;99.90;;;;;;6261852;28;20032;-82
2021/06/08 00:11:14;;;;;;;9.63;8.73;;;16.30;99.90;;;;;;6295113;28;20056;-82
2021/06/08 00:14:14;;;;;;;17.95;9.85;;;16.20;99.90;;;;;;6278521;28;20458;-82
2021/06/08 00:17:15;;;;;;;10.57;9.57;;;16.20;99.90;;;;;;6278264;28;20051;-83
2021/06/08 00:20:16;;;;;;;10.25;9.35;;;;;;;;;;6294502;28;20044;-82
2021/06/08 00:23:16;;;;;;;10.43;9.43;;;16.30;99.90;;;;;;6296060;28;20033;-82
2021/06/08 00:26:17;;;;;;;13.57;9.45;;;;;;;;;;6277340;28;20432;-83
2021/06/08 00:29:18;;;;;;;13.23;9.85;;;16.20;99.90;;;;;;6294657;28;20024;-83
2021/06/08 00:32:19;;;;;;;10.60;9.60;;;16.30;99.90;;;;;;6294200;28;20032;-83
2021/06/08 00:35:19;;;;;;;9.85;8.85;;;16.00;99.90;;;;;;6294510;28;20035;-83
2021/06/08 00:38:20;;;;;;;9.75;8.75;;;;;;;;;;6294325;28;20151;-82
2021/06/08 00:41:32;;;;;;;9.48;8.45;;;16.00;99.90;;;;;;6277686;28;20458;-82
2021/06/08 00:44:32;;;;;;;10.70;8.82;;;16.00;99.90;;;;;;6260974;28;20139;-82
2021/06/08 00:47:33;;;;;;;10.43;9.40;;;;;;;;;;6260920;28;20029;-82
2021/06/08 00:50:34;;;;;;;10.25;9.23;;;16.00;99.90;;;;;;6294624;28;20400;-82
2021/06/08 00:53:35;;;;;;;11.40;8.90;;;16.10;99.90;;;;;;6276848;28;20104;-82
2021/06/08 00:56:36;;;;;;;11.25;9.63;;;16.10;99.90;;;;;;6293731;28;20060;-82
2021/06/08 00:59:37;;;;;;;11.32;9.40;;;16.30;99.90;;;;;;6260770;28;20500;-82
2021/06/08 01:02:38;;;;;;;10.80;9.70;;;;;;;;;;6260600;28;20024;-82
2021/06/08 01:05:39;;;;;;;10.52;9.60;;;16.00;99.90;;;;;;6293495;28;20025;-82
2021/06/08 01:08:39;;;;;;;10.20;9.20;;;16.00;99.90;;;;;;6294268;28;20036;-82
2021/06/08 01:11:40;;;;;;;9.90;8.90;;;16.10;99.90;;;;;;6277051;28;20024;-82
2021/06/08 01:14:41;;;;;;;12.73;9.93;;;16.10;99.90;;;;;;6277141;28;20032;-82
2021/06/08 01:17:42;;;;;;;11.57;9.75;;;16.40;99.90;;;;;;6293267;28;20040;-82
2021/06/08 01:20:42;;;;;;;10.80;9.73;;;16.00;99.90;;;;;;6276730;28;20020;-82
2021/06/08 01:23:43;;;;;;;14.18;10.93;;;16.20;99.90;;;;;;6276599;28;20544;-82
2021/06/08 01:26:44;;;;;;;9.98;8.98;;;16.00;99.90;;;;;;6276604;28;20454;-83
2021/06/08 01:29:44;;;;;;;11.80;10.13;;;16.00;99.90;;;;;;6260337;28;20039;-83
2021/06/08 01:32:45;;;;;;;12.40;10.65;;;15.90;99.90;;;;;;6292634;28;20038;-83
2021/06/08 01:35:46;;;;;;;11.05;9.73;;;16.00;99.90;;;;;;6276228;28;20478;-83
2021/06/08 01:38:49;;;;;;;10.35;9.02;;;15.90;99.90;;;;;;6292861;28;20130;-84
2021/06/08 01:41:50;;;;;;;11.27;10.18;;;15.90;99.90;;;;;;6276221;28;20593;-83
2021/06/08 01:44:51;;;;;;;11.60;10.18;;;16.00;99.90;;;;;;6276219;28;20025;-83
2021/06/08 01:47:51;;;;;;;11.38;10.18;;;15.90;99.90;;;;;;6275606;28;20036;-83
2021/06/08 01:50:52;;;;;;;10.40;9.40;;;16.10;99.90;;;;;;6292496;28;20079;-84
2021/06/08 01:54:01;;;;;;;10.50;9.50;;;16.00;99.90;;;;;;6275787;28;20036;-83
2021/06/08 01:57:15;;;;;;;11.02;9.25;;;15.80;99.90;;;;;;6276563;28;20045;-83
2021/06/08 02:00:37;;;;;;;9.45;8.45;;;15.90;99.90;;;;;;6260095;28;20032;-84
2021/06/08 02:03:38;;;;;;;11.27;9.52;;;15.80;99.90;;;;;;6273963;28;20037;-83
2021/06/08 02:06:46;;;;;;;10.32;9.13;;;15.80;99.90;;;;;;6291793;28;20429;-84
2021/06/08 02:10:07;;;;;;;11.57;10.18;;;15.80;99.90;;;;;;6275374;28;20029;-82
2021/06/08 02:13:47;;;;;;;12.10;10.13;;;15.90;99.90;;;;;;6291232;28;20029;-82
2021/06/08 02:17:10;;;;;;;11.32;10.15;;;16.00;99.90;;;;;;6223573;28;20447;-84
2021/06/08 02:20:28;;;;;;;11.80;10.60;;;15.80;99.90;;;;;;6240401;28;20668;-82
2021/06/08 02:23:29;;;;;;;14.25;10.77;;;15.80;99.90;;;;;;6191446;28;20030;-84
2021/06/08 02:26:31;;;;;;;11.18;10.07;;;14.40;99.90;;;;;;6207570;28;20045;-83
2021/06/08 02:29:32;;;;;;;10.15;9.25;;;;;;;;;;6207607;28;20527;-82
2021/06/08 02:32:33;;;;;;;9.95;8.95;;;15.60;99.90;;;;;;6224035;28;20033;-84
2021/06/08 02:35:35;;;;;;;10.65;9.30;;;16.00;99.90;;;;;;6207225;28;20173;-85
2021/06/08 02:38:36;;;;;;;10.52;9.25;;;;;;;;;;6223835;28;20168;-83
2021/06/08 02:41:38;;;;;;;9.73;8.65;;;15.80;99.90;;;;;;6223384;28;20403;-82
2021/06/08 02:44:39;;;;;;;10.38;8.88;;;15.70;99.90;;;;;;6190972;28;20435;-82
2021/06/08 02:47:41;;;;;;;10.17;9.03;;;15.60;99.90;;;;;;6223146;28;20029;-83
2021/06/08 02:50:44;;;;;;;9.70;8.70;;;15.80;99.90;;;;;;6190927;28;20685;-83
2021/06/08 02:53:44;;;;;;;11.00;8.80;;;15.50;99.90;;;;;;6262738;28;20041;-84
2021/06/08 02:56:45;;;;;;;10.48;8.60;;;;;;;;;;6274413;28;20064;-83
2021/06/08 02:59:47;;;;;;;10.18;8.82;;;15.50;99.90;;;;;;6274609;28;20059;-84
2021/06/08 03:02:53;;;;;;;9.45;8.55;;;15.90;99.90;;;;;;6257896;28;20047;-83
2021/06/08 03:05:59;;;;;;;11.00;9.80;;;15.80;99.90;;;;;;6274833;28;20040;-84
2021/06/08 03:09:13;;;;;;;9.40;8.50;;;15.70;99.90;;;;;;6257903;28;20036;-83
2021/06/08 03:12:14;;;;;;;10.25;8.55;;;15.60;99.90;;;;;;6274979;28;20032;-82
2021/06/08 03:15:15;;;;;;;9.25;8.35;;;;;;;;;;6274602;28;20521;-82
2021/06/08 03:18:17;;;;;;;9.75;8.82;;;15.70;99.90;;;;;;6277823;28;20023;-84
2021/06/08 03:21:30;;;;;;;9.88;8.70;;;15.70;99.90;;;;;;6279922;28;20049;-81
2021/06/08 03:24:32;;;;;;;9.40;8.43;;;15.80;99.90;;;;;;6296449;28;20086;-83
2021/06/08 03:27:33;;;;;;;10.87;9.17;;;;;;;;;;6295941;28;20130;-83
2021/06/08 03:30:34;;;;;;;9.68;8.77;;;;;;;;;;6296158;28;20263;-83
2021/06/08 03:33:34;;;;;;;8.60;7.80;;;15.90;99.90;;;;;;6279259;28;20028;-84
2021/06/08 03:36:36;;;;;;;9.05;8.15;;;;;;;;;;6279376;28;20410;-83
2021/06/08 03:39:36;;;;;;;9.70;8.80;;;15.70;99.90;;;;;;6278969;28;20112;-83
2021/06/08 03:42:39;;;;;;;9.85;8.85;;;;;;;;;;6278915;28;20025;-83
2021/06/08 03:45:40;;;;;;;8.60;7.80;;;15.70;99.90;;;;;;6279104;28;20654;-83
2021/06/08 03:48:40;;;;;;;9.00;8.10;;;15.70;99.90;;;;;;6278928;28;20028;-84
2021/06/08 03:51:42;;;;;;;9.35;8.45;;;15.80;99.90;;;;;;6262257;28;20028;-83
2021/06/08 03:54:42;;;;;;;9.05;8.25;;;15.70;99.90;;;;;;6262440;28;20035;-83
2021/06/08 03:57:46;;;;;;;8.88;8.00;;;15.70;99.90;;;;;;6278562;28;20156;-83
2021/06/08 04:00:50;;;;;;;7.82;7.13;;;15.80;99.90;;;;;;6279011;28;20024;-83
2021/06/08 04:03:51;;;;;;;8.05;7.25;;;15.60;99.90;;;;;;6278663;28;20021;-83
2021/06/08 04:06:52;;;;;;;9.20;8.30;;;15.60;99.90;;;;;;6278692;28;20051;-84
2021/06/08 04:09:52;;;;;;;9.23;8.32;;;15.60;99.90;;;;;;6278701;28;20134;-84
2021/06/08 04:12:53;;;;;;;8.80;7.90;;;;;;;;;;6278418;28;20033;-84
2021/06/08 04:15:54;;;;;;;8.05;6.95;;;15.70;99.90;;;;;;6294776;28;20044;-83
2021/06/08 04:18:55;;;;;;;8.55;7.15;;;;;;;;;;6278437;28;20027;-83
2021/06/08 04:21:56;;;;;;;7.18;6.47;;;15.70;99.90;;;;;;6294579;28;20082;-83
2021/06/08 04:24:57;;;;;;;7.88;7.05;;;16.00;99.90;;;;;;6261365;28;20028;-83
2021/06/08 04:27:57;;;;;;;8.05;7.00;;;15.80;99.90;;;;;;6277413;28;20044;-83
2021/06/08 04:30:58;;;;;;;7.50;6.80;;;15.60;99.90;;;;;;6278120;28;20027;-83
2021/06/08 04:33:59;;;;;;;7.63;6.75;;;;;;;;;;6277710;28;20020;-84
2021/06/08 04:37:00;;;;;;;8.25;7.38;;;;;;;;;;6277504;28;20037;-84
2021/06/08 04:40:00;;;;;;;11.18;7.57;;;15.70;99.90;;;;;;6295054;28;20031;-86
2021/06/08 04:43:01;;;;;;;14.00;8.15;;;15.90;99.90;;;;;;6260862;28;20434;-85
2021/06/08 04:46:03;;;;;;;9.93;7.97;;;15.60;99.90;;;;;;6277871;28;20024;-88
2021/06/08 04:49:03;;;;;;;10.32;7.35;;;15.70;99.90;;;;;;6261073;28;20474;-87
2021/06/08 04:52:05;;;;;;;10.65;7.88;;;15.60;99.90;;;;;;6277715;28;20107;-84
2021/06/08 04:55:07;;;;;;;10.00;7.88;;;15.60;99.90;;;;;;6279265;28;20060;-82
2021/06/08 04:58:08;;;;;;;10.15;7.32;;;15.70;99.90;;;;;;6269546;28;20517;-83
2021/06/08 05:01:28;;;;;;;9.35;7.00;;;15.70;99.90;;;;;;6285540;28;20028;-81
2021/06/08 05:04:29;;;;;;;8.55;7.47;;;;;;;;;;6301663;28;20039;-84
2021/06/08 05:07:30;;;;;;;7.72;6.75;;;;;;;;;;6302191;28;20028;-80
2021/06/08 05:10:31;;;;;;;7.40;6.55;;;15.90;99.90;;;;;;6302333;28;20042;-81
2021/06/08 05:13:32;;;;;;;7.20;6.00;;;15.80;99.90;;;;;;6285285;28;20028;-85
2021/06/08 05:16:32;;;;;;;8.25;6.47;;;15.70;99.90;;;;;;6268688;28;20127;-82
2021/06/08 05:19:33;;;;;;;8.98;6.60;;;15.70;99.90;;;;;;6285299;28;20093;-82
2021/06/08 05:22:33;;;;;;;8.20;6.28;;;15.70;99.90;;;;;;6301646;28;20393;-83
2021/06/08 05:25:34;;;;;;;6.82;5.82;;;15.90;99.90;;;;;;6301799;28;20119;-84
2021/06/08 05:28:35;;;;;;;6.75;6.10;;;15.80;99.90;;;;;;6301203;28;20370;-80
2021/06/08 05:31:35;;;;;;;5.75;5.10;;;15.80;99.90;;;;;;6301555;28;20032;-80
2021/06/08 05:34:36;;;;;;;6.28;5.38;;;15.80;99.90;;;;;;6284493;28;20836;-79
2021/06/08 05:37:40;;;;;;;6.28;5.30;;;15.80;99.90;;;;;;6284429;28;20042;-83
2021/06/08 05:40:43;;;;;;;6.35;5.03;;;15.80;99.90;;;;;;6300402;28;20032;-81
2021/06/08 05:43:44;;;;;;;6.15;5.30;;;15.90;99.90;;;;;;6285115;28;20024;-82
2021/06/08 05:46:45;;;;;;;4.45;3.80;;;;;;;;;;6300406;28;20035;-81
2021/06/08 05:49:46;;;;;;;6.15;4.10;;;14.60;99.90;;;;;;6300695;28;20469;-81
2021/06/08 05:52:46;;;;;;;4.20;3.80;;;15.90;99.90;;;;;;6284507;28;20024;-82
2021/06/08 05:55:49;;;;;;;6.05;4.20;;;15.90;99.90;;;;;;6300376;28;20142;-82
2021/06/08 05:58:51;;;;;;;5.53;4.07;;;16.00;99.90;;;;;;6284385;28;20032;-82
2021/06/08 06:01:52;;;;;;;7.80;7.00;;;15.60;99.90;;;;;;6281996;28;20028;-82
2021/06/08 06:04:53;;;;;;;6.03;4.95;;;16.10;99.90;;;;;;6300706;28;20032;-81
2021/06/08 06:07:54;;;;;;;8.85;7.95;;;;;;;;;;6283406;28;20105;-82
2021/06/08 06:10:54;;;;;;;5.75;4.80;;;16.30;99.90;;;;;;6300582;28;20020;-82
2021/06/08 06:14:02;;;;;;;4.95;3.60;;;16.30;99.90;;;;;;6283395;28;20106;-80
2021/06/08 06:17:03;;;;;;;4.60;3.38;;;16.40;99.90;;;;;;6286063;28;20085;-82
2021/06/08 06:20:12;;;;;;;4.75;3.60;;;16.60;99.90;;;;;;6284077;28;20039;-81
2021/06/08 06:23:19;;;;;;;5.07;4.00;;;16.50;99.90;;;;;;6283297;28;20032;-81
2021/06/08 06:26:19;;;;;;;4.90;3.17;;;16.60;99.90;;;;;;6283268;28;20047;-84
2021/06/08 06:29:20;;;;;;;3.30;3.00;;;16.70;99.90;;;;;;6300728;28;20024;-81
2021/06/08 06:32:21;;;;;;;3.70;3.10;;;16.70;99.90;;;;;;6283531;28;20482;-84
2021/06/08 06:35:21;;;;;;;3.40;3.10;;;16.90;99.90;;;;;;6283438;28;20040;-81
2021/06/08 06:38:22;;;;;;;5.25;3.40;;;16.70;99.90;;;;;;6283367;28;20022;-83
2021/06/08 06:41:22;;;;;;;3.75;3.10;;;17.30;99.90;;;;;;6283153;28;20036;-81
2021/06/08 06:44:23;;;;;;;3.72;3.30;;;17.10;99.90;;;;;;6266698;28;20047;-80
2021/06/08 06:47:24;;;;;;;3.47;3.10;;;;;;;;;;6299713;28;20040;-83
2021/06/08 06:50:25;;;;;;;6.68;3.72;;;17.30;99.90;;;;;;6317822;28;20427;-82
2021/06/08 06:53:26;;;;;;;3.53;2.97;;;17.20;99.90;;;;;;6300028;28;20030;-82
2021/06/08 06:56:27;;;;;;;4.00;3.00;;;;;;;;;;6265725;28;20051;-83
2021/06/08 06:59:27;;;;;;;3.88;3.50;;;17.70;99.90;;;;;;6299939;28;20069;-81
2021/06/08 07:02:28;;;;;;;3.50;3.20;;;17.50;99.90;;;;;;6283434;28;20028;-81
2021/06/08 07:05:30;;;;;;;3.55;3.25;;;17.70;99.90;;;;;;6299710;28;20028;-81
2021/06/08 07:08:31;;;;;;;5.25;3.20;;;17.70;99.90;;;;;;6283035;28;20058;-82
2021/06/08 07:11:32;;;;;;;3.30;3.00;;;17.80;99.90;;;;;;6282934;28;20085;-81
2021/06/08 07:14:33;;;;;;;3.60;3.30;;;17.80;99.90;;;;;;6299938;28;20465;-82
2021/06/08 07:17:33;;;;;;;4.47;3.13;;;17.80;99.90;;;;;;6299799;28;20044;-82
2021/06/08 07:20:34;;;;;;;3.50;3.00;;;17.80;99.90;;;;;;6282758;28;20032;-82
2021/06/08 07:23:35;;;;;;;4.47;3.10;;;17.90;99.90;;;;;;6299291;28;20051;-82
2021/06/08 07:26:36;;;;;;;5.53;3.40;;;18.00;99.90;;;;;;6282950;28;20401;-82
2021/06/08 07:29:37;;;;;;;3.78;3.47;;;18.10;99.90;;;;;;6299263;28;20020;-82
2021/06/08 07:32:54;;;;;;;4.88;3.00;;;18.20;99.90;;;;;;6265994;28;20067;-82
2021/06/08 07:36:08;;;;;;;3.80;3.13;;;18.20;99.90;;;;;;6300300;28;20477;-82
2021/06/08 07:39:31;;;;;;;4.85;3.70;;;18.20;99.90;;;;;;6300897;28;20028;-82
2021/06/08 07:42:36;;;;;;;3.78;3.17;;;18.20;99.90;;;;;;6299389;28;20020;-82
2021/06/08 07:45:44;;;;;;;3.88;3.30;;;18.20;99.90;;;;;;6283140;28;20063;-82
2021/06/08 07:48:45;;;;;;;4.82;3.40;;;18.20;99.90;;;;;;6266565;28;20458;-81
2021/06/08 07:51:47;;;;;;;3.93;3.50;;;18.10;99.90;;;;;;6299044;28;20024;-82
2021/06/08 07:54:47;;;;;;;4.60;3.30;;;19.10;99.90;;;;;;6282372;28;20036;-81
2021/06/08 07:57:48;;;;;;;3.85;3.30;;;18.10;99.90;;;;;;6282063;28;20776;-82
2021/06/08 08:00:59;;;;;;;4.88;3.70;;;18.10;99.90;;;;;;6299422;28;20030;-82
2021/06/08 08:03:59;;;;;;;4.00;3.33;;;18.10;99.90;;;;;;6269012;28;20162;-82
2021/06/08 08:07:00;;;;;;;3.85;3.38;;;18.10;99.90;;;;;;6303705;28;20396;-82
2021/06/08 08:10:01;;;;;;;5.18;3.55;;;18.30;99.90;;;;;;6270257;28;20028;-82
2021/06/08 08:13:01;;;;;;;4.32;3.50;;;18.40;99.90;;;;;;6287016;28;20441;-84
2021/06/08 08:16:04;;;;;;;3.88;3.47;;;19.00;99.90;;;;;;6269942;28;20031;-82
2021/06/08 08:19:04;;;;;;;;;;;18.80;99.90;;;;;;6270737;28;20583;-81
2021/06/08 08:22:05;;;;;;;4.35;3.95;;;18.90;99.90;;;;;;6303139;28;19904;-85
2021/06/08 08:25:06;;;;;;;6.90;4.90;;;18.80;99.90;;;;;;6286393;28;20073;-82
2021/06/08 08:28:08;;;;;;;4.77;4.27;;;18.80;99.90;;;;;;6302883;28;20385;-82
2021/06/08 08:31:10;;;;;;;4.63;4.13;;;18.70;99.90;;;;;;6303028;28;20612;-79
2021/06/08 08:34:11;;;;;;;4.55;4.03;;;18.60;99.90;;;;;;6302800;28;20530;-83
2021/06/08 08:37:11;;;;;;;4.07;3.47;;;18.50;99.90;;;;;;6301861;28;20036;-80
2021/06/08 08:40:12;;;;;;;5.07;3.80;;;18.40;99.90;;;;;;6301381;28;20413;-82
2021/06/08 08:43:13;;;;;;;4.05;3.65;;;18.40;99.90;;;;;;6285979;28;20031;-84
2021/06/08 08:46:14;;;;;;;3.95;3.65;;;18.40;99.90;;;;;;6285848;28;20522;-82
2021/06/08 08:49:15;;;;;;;4.85;4.18;;;18.60;99.90;;;;;;6285638;28;20028;-86
2021/06/08 08:52:15;;;;;;;5.80;4.47;;;18.70;99.90;;;;;;6284880;28;20032;-81
2021/06/08 08:55:16;;;;;;;4.20;3.80;;;18.90;99.90;;;;;;6284022;28;20056;-82
2021/06/08 08:58:17;;;;;;;4.75;4.05;;;19.30;99.90;;;;;;6268726;28;20036;-82
2021/06/08 09:01:17;;;;;;;4.78;3.83;;;19.20;99.90;;;;;;6285346;28;20032;-83
2021/06/08 09:04:19;;;;;;;3.92;3.60;;;19.30;99.90;;;;;;6284855;28;20024;-82
2021/06/08 09:07:20;;;;;;;3.65;3.35;;;;;;;;;;6285989;28;20035;-83
2021/06/08 09:10:21;;;;;;;4.18;3.72;;;19.60;99.90;;;;;;6285614;28;20024;-82
2021/06/08 09:13:22;;;;;;;4.07;3.67;;;19.80;99.90;;;;;;6301771;28;20111;-82
2021/06/08 09:16:23;;;;;;;3.97;3.55;;;20.00;99.90;;;;;;6267362;28;20089;-82
2021/06/08 09:19:25;;;;;;;3.88;3.58;;;20.10;99.90;;;;;;6283998;28;20036;-82
2021/06/08 09:22:46;;;;;;;;;;;20.10;99.90;;;;;;6269084;28;20028;-82
2021/06/08 09:25:47;;;;;;;5.05;3.72;;;20.30;99.90;;;;;;6300324;28;20357;-83
2021/06/08 09:28:47;;;;;;;4.10;3.70;;;20.50;99.90;;;;;;6268200;28;20024;-83
2021/06/08 09:31:48;;;;;;;4.30;3.85;;;20.70;99.90;;;;;;6301356;28;20035;-84
2021/06/08 09:34:58;;;;;;;5.97;4.30;;;20.80;99.90;;;;;;6301631;28;20032;-83
2021/06/08 09:37:59;;;;;;;3.97;3.58;;;20.90;99.90;;;;;;6301347;28;20535;-82
2021/06/08 09:41:13;;;;;;;4.75;3.63;;;21.10;99.90;;;;;;6268073;28;20028;-82
2021/06/08 09:44:20;;;;;;;4.07;3.70;;;21.00;99.90;;;;;;6284715;28;20036;-83
2021/06/08 09:47:30;;;;;;;4.95;3.72;;;20.90;99.90;;;;;;6268087;28;20488;-84
2021/06/08 09:50:34;;;;;;;6.10;4.60;;;21.10;99.90;;;;;;6283984;28;20028;-82
2021/06/08 09:53:37;;;;;;;4.28;3.70;;;21.00;99.90;;;;;;6301207;28;20028;-82
2021/06/08 09:56:37;;;;;;;;;;;20.90;99.90;;;;;;6260061;28;20105;-82
2021/06/08 09:59:48;;;;;;;4.28;3.88;;;20.90;99.90;;;;;;6275399;28;19912;-81
2021/06/08 10:02:50;;;;;;;5.38;4.25;;;20.90;99.90;;;;;;6276360;28;20181;-82
2021/06/08 10:06:03;;;;;;;7.68;4.10;;;20.90;99.90;;;;;;6292185;28;20036;-81
2021/06/08 10:09:07;;;;;;;6.43;4.55;;;21.00;99.90;;;;;;6276929;28;20036;-82
2021/06/08 10:12:08;;;;;;;4.57;4.18;;;21.10;99.90;;;;;;6292529;28;20202;-82
2021/06/08 10:15:10;;;;;;;4.57;4.03;;;21.10;99.90;;;;;;6275259;28;20545;-82
2021/06/08 10:18:10;;;;;;;5.30;4.63;;;20.90;99.90;;;;;;6258847;28;20120;-85
2021/06/08 10:21:11;;;;;;;7.63;4.45;;;20.70;99.90;;;;;;6276162;28;20041;-81
2021/06/08 10:24:14;;;;;;;4.88;4.38;;;20.60;99.90;;;;;;6275528;28;20067;-83
2021/06/08 10:27:14;;;;;;;6.05;4.35;;;20.60;99.90;;;;;;6291774;28;20036;-81
2021/06/08 10:30:15;;;;;;;5.00;4.50;;;20.60;99.90;;;;;;6275073;28;20043;-82
2021/06/08 10:33:16;;;;;;;6.40;4.90;;;20.70;99.90;;;;;;6258803;28;20447;-82
2021/06/08 10:36:17;;;;;;;6.13;5.20;;;20.80;99.90;;;;;;6291876;28;20094;-84
2021/06/08 10:39:20;;;;;;;6.97;5.13;;;21.00;99.90;;;;;;6258656;28;20031;-83
2021/06/08 10:42:21;;;;;;;5.82;5.20;;;21.20;99.90;;;;;;6275926;28;20021;-84
2021/06/08 10:45:22;;;;;;;6.10;5.50;;;21.30;99.90;;;;;;6292515;28;20024;-82
2021/06/08 10:48:31;;;;;;;6.22;5.63;;;21.30;99.90;;;;;;6275302;28;20463;-81
2021/06/08 10:51:34;;;;;;;7.20;6.50;;;21.20;99.90;;;;;;6275207;28;20028;-82
2021/06/08 10:54:40;;;;;;;6.30;5.70;;;21.20;99.90;;;;;;6275194;28;20471;-81
2021/06/08 10:57:44;;;;;;;6.90;6.20;;;21.00;99.90;;;;;;6274518;28;20053;-82
2021/06/08 11:00:50;;;;;;;7.60;6.88;;;20.90;99.90;;;;;;6275413;28;20050;-82
2021/06/08 11:03:52;;;;;;;8.02;7.03;;;20.70;99.90;;;;;;6275474;28;20028;-81
2021/06/08 11:06:56;;;;;;;9.05;8.13;;;20.60;99.90;;;;;;6291322;28;20454;-82
2021/06/08 11:09:58;;;;;;;8.85;8.05;;;20.30;99.90;;;;;;6290996;28;20086;-82
2021/06/08 11:13:11;;;;;;;10.32;9.40;;;20.50;99.90;;;;;;6274728;28;20055;-81
2021/06/08 11:16:30;;;;;;;11.13;10.02;;;20.50;99.90;;;;;;6291128;28;20040;-81
2021/06/08 11:19:51;;;;;;;13.70;10.90;;;20.40;99.90;;;;;;6257992;28;20028;-82
2021/06/08 11:22:57;;;;;;;13.23;11.98;;;20.20;99.90;;;;;;6292406;28;20355;-82
2021/06/08 11:25:57;;;;;;;13.32;12.02;;;20.20;99.90;;;;;;6275332;28;20040;-87
2021/06/08 11:28:58;;;;;;;12.75;11.50;;;20.30;99.90;;;;;;6291123;28;20074;-81
2021/06/08 11:31:59;;;;;;;12.90;11.60;;;20.30;99.90;;;;;;6291650;28;20035;-82
2021/06/08 11:35:28;;;;;;;13.43;12.13;;;20.40;99.90;;;;;;6274281;28;20029;-82
2021/06/08 11:38:34;;;;;;;13.73;12.43;;;20.70;99.90;;;;;;6283040;28;20033;-81
2021/06/08 11:41:55;;;;;;;13.98;12.57;;;21.10;99.90;;;;;;6295920;28;20732;-82
2021/06/08 11:45:26;;;;;;;14.38;12.98;;;21.60;99.90;;;;;;6280333;28;20028;-82
2021/06/08 11:48:34;;;;;;;16.13;14.48;;;21.90;99.90;;;;;;6289495;28;20119;-82
2021/06/08 11:51:37;;;;;;;17.52;15.82;;;22.10;99.90;;;;;;6295617;28;20028;-82
2021/06/08 11:54:42;;;;;;;17.02;15.35;;;21.70;99.90;;;;;;6279060;28;20117;-82
2021/06/08 11:57:42;;;;;;;18.75;16.75;;;21.70;99.90;;;;;;6295417;28;20060;-84
2021/06/08 12:00:52;;;;;;;19.73;17.27;;;21.00;99.90;;;;;;6279061;28;20035;-82
2021/06/08 12:03:59;;;;;;;22.10;20.00;;;21.20;99.90;;;;;;6296083;28;20078;-82
2021/06/08 12:07:05;;;;;;;22.60;20.33;;;20.70;99.90;;;;;;6278757;28;20461;-81
2021/06/08 12:10:06;;;;;;;24.70;22.17;;;20.50;99.90;;;;;;6295054;28;20115;-81
2021/06/08 12:13:07;;;;;;;26.20;23.50;;;20.30;99.90;;;;;;6278456;28;20028;-82
2021/06/08 12:16:10;;;;;;;27.23;24.42;;;20.10;99.90;;;;;;6277862;28;20040;-84
2021/06/08 12:19:11;;;;;;;29.58;26.25;;;20.00;99.90;;;;;;6278345;28;20025;-81
2021/06/08 12:22:25;;;;;;;30.20;27.10;;;19.80;99.90;;;;;;6295301;28;20051;-81
2021/06/08 12:25:26;;;;;;;31.55;28.02;;;19.80;99.90;;;;;;6277897;28;20428;-83
2021/06/08 12:28:26;;;;;;;31.40;27.92;;;20.10;99.90;;;;;;6277978;28;20037;-81
2021/06/08 12:31:27;;;;;;;33.47;30.08;;;20.50;99.90;;;;;;6278308;28;20024;-81
2021/06/08 12:34:36;;;;;;;33.83;30.15;;;20.10;99.90;;;;;;6278057;28;20387;-85
2021/06/08 12:37:36;;;;;;;35.78;32.08;;;20.60;99.90;;;;;;6278305;28;20422;-82
2021/06/08 12:40:37;;;;;;;35.50;31.67;;;21.00;99.90;;;;;;6277894;28;20067;-83
2021/06/08 12:43:47;;;;;;;36.28;32.47;;;21.20;99.90;;;;;;6277915;28;20032;-83
2021/06/08 12:46:49;;;;;;;34.50;30.90;;;21.70;99.90;;;;;;6294536;28;20382;-82
2021/06/08 12:49:51;;;;;;;;;;;21.80;99.90;;;;;;6294205;28;20108;-84
2021/06/08 12:52:56;;;;;;;33.20;29.90;;;22.40;99.90;;;;;;6277769;28;19905;-85
2021/06/08 12:55:57;;;;;;;32.15;28.83;;;22.60;99.90;;;;;;6277008;28;20061;-82
2021/06/08 12:58:57;;;;;;;33.15;29.80;;;22.70;99.90;;;;;;6277591;28;20025;-86
2021/06/08 13:02:00;;;;;;;25.42;22.77;;;22.70;99.90;;;;;;6277413;28;20029;-81
2021/06/08 13:05:03;;;;;;;32.80;29.27;;;22.70;99.90;;;;;;6293744;28;20027;-83
2021/06/08 13:08:04;;;;;;;31.80;28.55;;;22.50;99.90;;;;;;6277345;28;20029;-82
2021/06/08 13:11:21;;;;;;;30.73;27.55;;;22.70;99.90;;;;;;6277359;28;20111;-83
2021/06/08 13:14:22;;;;;;;30.90;27.35;;;22.40;99.90;;;;;;6293744;28;20111;-84
2021/06/08 13:17:27;;;;;;;28.63;25.80;;;22.60;99.90;;;;;;6260150;28;20047;-83
2021/06/08 13:20:29;;;;;;;27.33;24.50;;;23.10;99.90;;;;;;6276715;28;20106;-83
2021/06/08 13:23:31;;;;;;;28.48;25.65;;;23.20;99.90;;;;;;6276722;28;20032;-83
2021/06/08 13:26:32;;;;;;;28.08;25.27;;;23.20;99.90;;;;;;6277172;28;20059;-81
2021/06/08 13:29:32;;;;;;;26.27;23.58;;;23.30;99.90;;;;;;6293227;28;20025;-84
2021/06/08 13:32:34;;;;;;;26.20;23.52;;;23.20;99.90;;;;;;6293255;28;20071;-84
2021/06/08 13:35:36;;;;;;;24.70;22.27;;;23.00;99.50;;;;;;6274204;28;20032;-90
2021/06/08 13:38:37;;;;;;;24.20;21.75;;;22.80;99.90;;;;;;6293622;28;20024;-81
2021/06/08 13:41:37;;;;;;;26.05;23.25;;;22.60;99.90;;;;;;6276728;28;20027;-83
2021/06/08 13:44:38;;;;;;;25.42;22.98;;;22.50;99.90;;;;;;6275871;28;20523;-84
2021/06/08 13:47:41;;;;;;;25.02;22.58;;;22.50;99.90;;;;;;6276239;28;20116;-83
2021/06/08 13:50:41;;;;;;;26.25;23.65;;;22.30;99.90;;;;;;6293082;28;20032;-84
2021/06/08 13:54:01;;;;;;;21.27;19.25;;;22.10;99.90;;;;;;6275806;28;20033;-84
2021/06/08 14:00:22;;;;;;;22.60;20.50;;;22.30;99.90;;;;;;6292193;28;20068;-80
2021/06/08 14:03:24;;;;;;;22.75;20.52;;;22.40;99.90;;;;;;6292084;28;20025;-82
2021/06/08 14:06:24;;;;;;;25.08;20.25;;;22.60;99.90;;;;;;6276079;28;20036;-81
2021/06/08 14:09:25;;;;;;;36.97;15.18;;;22.80;99.90;;;;;;6275341;28;20032;-83
2021/06/08 14:12:26;;;;;;;24.40;21.92;;;23.20;99.90;;;;;;6275487;28;20446;-81
2021/06/08 14:15:27;;;;;;;26.80;24.27;;;23.50;99.80;;;;;;6292350;28;20104;-82
2021/06/08 14:18:27;;;;;;;27.90;22.65;;;23.70;99.90;;;;;;6275653;28;20040;-81
2021/06/08 14:21:28;;;;;;;25.40;21.63;;;23.80;99.80;;;;;;6275576;28;20033;-80
2021/06/08 14:24:30;;;;;;;28.02;25.25;;;24.10;99.40;;;;;;6275404;28;20074;-83
2021/06/08 14:27:35;;;;;;;24.73;21.83;;;24.20;99.90;;;;;;6258668;28;20059;-80
2021/06/08 14:30:35;;;;;;;27.60;24.88;;;24.40;98.50;;;;;;6276087;28;20037;-82
2021/06/08 14:33:37;;;;;;;32.37;29.07;;;24.60;98.80;;;;;;6275583;28;20517;-78
2021/06/08 14:36:37;;;;;;;32.67;26.38;;;24.70;98.40;;;;;;6274717;28;20036;-79
2021/06/08 14:39:38;;;;;;;30.40;27.20;;;24.40;98.20;;;;;;6291520;28;20037;-80
2021/06/08 14:42:39;;;;;;;34.60;30.07;;;24.40;98.20;;;;;;6291435;28;20108;-81
2021/06/08 14:45:39;;;;;;;29.73;26.75;;;24.10;98.50;;;;;;6275037;28;20059;-77
2021/06/08 14:48:40;;;;;;;35.10;31.52;;;24.10;99.90;;;;;;6291521;28;20123;-81
2021/06/08 14:51:41;;;;;;;32.33;28.95;;;23.10;99.90;;;;;;6275464;28;20067;-80
2021/06/08 14:54:42;;;;;;;33.15;29.65;;;23.10;99.90;;;;;;6291668;28;20025;-81
2021/06/08 14:57:42;;;;;;;34.63;31.05;;;23.10;99.90;;;;;;6274731;28;20048;-80
2021/06/08 15:00:43;;;;;;;34.58;30.77;;;22.70;99.90;;;;;;6291756;28;20036;-79
2021/06/08 15:03:43;;;;;;;34.10;30.60;;;22.60;99.90;;;;;;6291488;28;20089;-80
2021/06/08 15:06:44;;;;;;;35.85;32.15;;;22.70;99.90;;;;;;6291570;28;20498;-78
2021/06/08 15:09:45;;;;;;;34.53;29.35;;;23.00;99.90;;;;;;6291008;28;20028;-78
2021/06/08 15:12:46;;;;;;;35.00;30.52;;;23.30;99.90;;;;;;6293596;28;20032;-77
2021/06/08 15:15:46;;;;;;;36.28;32.50;;;23.50;99.90;;;;;;6297426;28;20479;-80
2021/06/08 15:18:47;;;;;;;39.33;35.28;;;23.70;99.90;;;;;;6297919;28;20024;-79
2021/06/08 15:21:48;;;;;;;37.10;33.25;;;23.90;99.90;;;;;;6297691;28;20108;-79
2021/06/08 15:24:49;;;;;;;34.95;31.50;;;23.80;99.60;;;;;;6297561;28;20425;-81
2021/06/08 15:27:50;;;;;;;37.53;33.83;;;23.70;99.30;;;;;;6296478;28;20082;-78
2021/06/08 15:30:50;;;;;;;36.93;33.30;;;23.50;99.10;;;;;;6297111;28;20035;-78
2021/06/08 15:33:51;;;;;;;39.15;34.85;;;23.20;99.60;;;;;;6297362;28;20043;-78
2021/06/08 15:36:52;;;;;;;36.85;33.05;;;23.10;99.70;;;;;;6295406;28;20040;-77
2021/06/08 15:39:53;;;;;;;38.65;34.72;;;22.80;99.90;;;;;;6296677;28;20489;-80
2021/06/08 15:42:53;;;;;;;38.35;31.75;;;22.70;99.90;;;;;;6295511;28;20492;-78
2021/06/08 15:45:54;;;;;;;39.20;35.03;;;22.70;99.90;;;;;;6295914;28;20047;-79
2021/06/08 15:48:54;;;;;;;37.70;32.28;;;22.80;99.90;;;;;;6293692;28;20029;-80
2021/06/08 15:51:55;;;;;;;34.88;31.40;;;22.80;99.90;;;;;;6295106;28;20089;-79
2021/06/08 15:54:56;;;;;;;36.53;32.58;;;22.80;99.90;;;;;;6294999;28;20036;-78
2021/06/08 15:57:56;;;;;;;36.05;32.22;;;22.80;99.90;;;;;;6286172;28;20151;-79